sensor_id;sensor_type;location;lat;lon;timestamp;temperature;humidity
15815;DHT22;8008;50.024;8.172;2024-01-07T04:00:37;6.40;99.90
15815;DHT22;8008;50.024;8.172;2024-01-07T04:03:05;6.40;99.90
15815;DHT22;8008;50.024;8.172;2024-01-07T04:05:33;6.40;99.90
15815;DHT22;8008;50.024;8.172;2024-01-07T04:08:02;6.30;99.90
15815;DHT22;8008;50.024;8.172;2024-01-07T04:10:30;6.30;99.90
15815;DHT22;8008;50.024;8.172;2024-01-07T04:12:58;6.30;99.90
15815;DHT22;8008;50.024;8.172;2024-01-07T04:15:26;6.30;99.90
15815;DHT22;8008;50.024;8.172;2024-01-07T04:17:55;6.30;99.90
15815;DHT22;8008;50.024;8.172;2024-01-07T04:20:23;6.40;99.90
15815;DHT22;8008;50.024;8.172;2024-01-07T04:22:51;6.30;99.90
15815;DHT22;8008;50.024;8.172;2024-01-07T04:25:19;6.30;99.90
15815;DHT22;8008;50.024;8.172;2024-01-07T04:27:47;6.30;99.90
15815;DHT22;8008;50.024;8.172;2024-01-07T04:30:16;6.30;99.90
15815;DHT22;8008;50.024;8.172;2024-01-07T04:32:44;6.20;99.90
15815;DHT22;8008;50.024;8.172;2024-01-07T04:35:13;6.20;99.90
15815;DHT22;8008;50.024;8.172;2024-01-07T04:37:42;6.20;99.90
15815;DHT22;8008;50.024;8.172;2024-01-07T04:40:11;6.30;99.90
15815;DHT22;8008;50.024;8.172;2024-01-07T04:42:39;6.30;99.90
15815;DHT22;8008;50.024;8.172;2024-01-07T04:45:08;6.20;99.90
15815;DHT22;8008;50.024;8.172;2024-01-07T04:47:37;6.10;99.90
15815;DHT22;8008;50.024;8.172;2024-01-07T04:50:06;6.10;99.90
15815;DHT22;8008;50.024;8.172;2024-01-07T04:52:35;6.10;99.90
15815;DHT22;8008;50.024;8.172;2024-01-07T04:55:04;6.20;99.90
15815;DHT22;8008;50.024;8.172;2024-01-07T04:57:32;6.30;99.90
15815;DHT22;8008;50.024;8.172;2024-01-07T05:00:02;6.30;99.90
15815;DHT22;8008;50.024;8.172;2024-01-07T05:02:30;6.20;99.90
15815;DHT22;8008;50.024;8.172;2024-01-07T05:04:58;6.20;99.90
15815;DHT22;8008;50.024;8.172;2024-01-07T05:07:26;6.30;99.90
15815;DHT22;8008;50.024;8.172;2024-01-07T05:09:55;6.20;99.90
15815;DHT22;8008;50.024;8.172;2024-01-07T05:12:23;6.10;99.90
15815;DHT22;8008;50.024;8.172;2024-01-07T05:14:52;6.10;99.90
15815;DHT22;8008;50.024;8.172;2024-01-07T05:17:20;6.10;99.90
15815;DHT22;8008;50.024;8.172;2024-01-07T05:19:48;6.10;99.90
15815;DHT22;8008;50.024;8.172;2024-01-07T05:22:16;6.10;99.90
15815;DHT22;8008;50.024;8.172;2024-01-07T05:24:44;6.10;99.90
15815;DHT22;8008;50.024;8.172;2024-01-07T05:27:14;6.20;99.90
15815;DHT22;8008;50.024;8.172;2024-01-07T05:29:44;6.10;99.90
15815;DHT22;8008;50.024;8.172;2024-01-07T05:32:13;6.10;99.90
15815;DHT22;8008;50.024;8.172;2024-01-07T05:34:41;6.10;99.90
15815;DHT22;8008;50.024;8.172;2024-01-07T05:37:09;6.20;99.90
15815;DHT22;8008;50.024;8.172;2024-01-07T05:39:37;6.20;99.90
15815;DHT22;8008;50.024;8.172;2024-01-07T05:42:05;6.20;99.90
15815;DHT22;8008;50.024;8.172;2024-01-07T05:44:35;6.20;99.90
15815;DHT22;8008;50.024;8.172;2024-01-07T05:47:03;6.20;99.90
15815;DHT22;8008;50.024;8.172;2024-01-07T05:49:31;6.20;99.90
15815;DHT22;8008;50.024;8.172;2024-01-07T05:51:59;6.20;99.90
15815;DHT22;8008;50.024;8.172;2024-01-07T05:54:27;6.20;99.90
15815;DHT22;8008;50.024;8.172;2024-01-07T05:56:58;6.20;99.90
15815;DHT22;8008;50.024;8.172;2024-01-07T05:59:26;6.30;99.90
15815;DHT22;8008;50.024;8.172;2024-01-07T06:01:59;6.30;99.90
15815;DHT22;8008;50.024;8.172;2024-01-07T06:04:27;6.30;99.90
15815;DHT22;8008;50.024;8.172;2024-01-07T06:06:55;6.40;99.90
15815;DHT22;8008;50.024;8.172;2024-01-07T06:09:23;6.30;99.90
15815;DHT22;8008;50.024;8.172;2024-01-07T06:11:51;6.30;99.90
15815;DHT22;8008;50.024;8.172;2024-01-07T06:14:20;6.40;99.90
15815;DHT22;8008;50.024;8.172;2024-01-07T06:16:48;6.30;99.90
15815;DHT22;8008;50.024;8.172;2024-01-07T06:19:18;6.30;99.90
15815;DHT22;8008;50.024;8.172;2024-01-07T06:21:46;6.40;99.90
15815;DHT22;8008;50.024;8.172;2024-01-07T06:24:14;6.40;99.90
15815;DHT22;8008;50.024;8.172;2024-01-07T06:26:42;6.40;99.90
15815;DHT22;8008;50.024;8.172;2024-01-07T06:29:10;6.30;99.90
15815;DHT22;8008;50.024;8.172;2024-01-07T06:31:43;6.30;99.90
15815;DHT22;8008;50.024;8.172;2024-01-07T06:34:12;6.30;99.90
15815;DHT22;8008;50.024;8.172;2024-01-07T06:36:42;6.30;99.90
15815;DHT22;8008;50.024;8.172;2024-01-07T06:39:10;6.30;99.90
15815;DHT22;8008;50.024;8.172;2024-01-07T06:41:38;6.20;99.90
15815;DHT22;8008;50.024;8.172;2024-01-07T06:44:06;6.30;99.90
15815;DHT22;8008;50.024;8.172;2024-01-07T06:46:34;6.20;99.90
15815;DHT22;8008;50.024;8.172;2024-01-07T06:49:02;6.20;99.90
15815;DHT22;8008;50.024;8.172;2024-01-07T06:51:30;6.20;99.90
15815;DHT22;8008;50.024;8.172;2024-01-07T06:53:59;6.20;99.90
15815;DHT22;8008;50.024;8.172;2024-01-07T06:56:27;6.20;99.90
15815;DHT22;8008;50.024;8.172;2024-01-07T06:58:55;6.20;99.90
15815;DHT22;8008;50.024;8.172;2024-01-07T07:01:23;6.20;99.90
15815;DHT22;8008;50.024;8.172;2024-01-07T07:03:52;6.20;99.90
15815;DHT22;8008;50.024;8.172;2024-01-07T07:06:20;6.00;99.90
15815;DHT22;8008;50.024;8.172;2024-01-07T07:08:48;6.00;99.90
15815;DHT22;8008;50.024;8.172;2024-01-07T07:11:18;5.90;99.90
15815;DHT22;8008;50.024;8.172;2024-01-07T07:13:46;6.00;99.90
15815;DHT22;8008;50.024;8.172;2024-01-07T07:16:14;6.00;99.90
15815;DHT22;8008;50.024;8.172;2024-01-07T07:18:42;6.00;99.90
15815;DHT22;8008;50.024;8.172;2024-01-07T07:21:11;6.00;99.90
15815;DHT22;8008;50.024;8.172;2024-01-07T07:23:39;6.00;99.90
15815;DHT22;8008;50.024;8.172;2024-01-07T07:26:07;6.00;99.90
15815;DHT22;8008;50.024;8.172;2024-01-07T07:28:36;6.00;99.90
15815;DHT22;8008;50.024;8.172;2024-01-07T07:31:04;5.90;99.90
15815;DHT22;8008;50.024;8.172;2024-01-07T07:33:33;5.90;99.90
15815;DHT22;8008;50.024;8.172;2024-01-07T07:36:01;6.00;99.90
15815;DHT22;8008;50.024;8.172;2024-01-07T07:38:30;6.00;99.90
15815;DHT22;8008;50.024;8.172;2024-01-07T07:40:58;6.00;99.90
15815;DHT22;8008;50.024;8.172;2024-01-07T07:43:26;6.10;99.90
15815;DHT22;8008;50.024;8.172;2024-01-07T07:45:56;6.10;99.90
15815;DHT22;8008;50.024;8.172;2024-01-07T07:48:24;6.10;99.90
15815;DHT22;8008;50.024;8.172;2024-01-07T07:50:53;6.10;99.90
15815;DHT22;8008;50.024;8.172;2024-01-07T07:53:21;6.10;99.90
15815;DHT22;8008;50.024;8.172;2024-01-07T07:55:49;6.10;99.90
15815;DHT22;8008;50.024;8.172;2024-01-07T07:58:17;6.10;99.90
15815;DHT22;8008;50.024;8.172;2024-01-07T08:00:45;6.00;99.90
15815;DHT22;8008;50.024;8.172;2024-01-07T08:03:15;6.00;99.90
15815;DHT22;8008;50.024;8.172;2024-01-07T08:05:43;6.00;99.90
15815;DHT22;8008;50.024;8.172;2024-01-07T08:08:11;6.10;99.90
15815;DHT22;8008;50.024;8.172;2024-01-07T08:10:39;6.00;99.90
15815;DHT22;8008;50.024;8.172;2024-01-07T08:13:07;6.00;99.90
15815;DHT22;8008;50.024;8.172;2024-01-07T08:15:35;6.10;99.90
15815;DHT22;8008;50.024;8.172;2024-01-07T08:18:05;6.10;99.90
15815;DHT22;8008;50.024;8.172;2024-01-07T08:20:34;6.00;99.90
15815;DHT22;8008;50.024;8.172;2024-01-07T08:23:02;6.00;99.90
15815;DHT22;8008;50.024;8.172;2024-01-07T08:25:31;6.00;99.90
15815;DHT22;8008;50.024;8.172;2024-01-07T08:27:59;6.00;99.90
15815;DHT22;8008;50.024;8.172;2024-01-07T08:30:28;6.10;99.90
15815;DHT22;8008;50.024;8.172;2024-01-07T08:32:56;6.00;99.90
15815;DHT22;8008;50.024;8.172;2024-01-07T08:35:24;6.10;99.90
15815;DHT22;8008;50.024;8.172;2024-01-07T08:37:54;6.10;99.90
15815;DHT22;8008;50.024;8.172;2024-01-07T08:40:24;6.10;99.90
15815;DHT22;8008;50.024;8.172;2024-01-07T08:42:52;6.20;99.90
15815;DHT22;8008;50.024;8.172;2024-01-07T08:45:20;6.20;99.90
15815;DHT22;8008;50.024;8.172;2024-01-07T08:47:48;6.10;99.90
15815;DHT22;8008;50.024;8.172;2024-01-07T08:50:16;6.20;99.90
15815;DHT22;8008;50.024;8.172;2024-01-07T08:52:44;6.10;99.90
15815;DHT22;8008;50.024;8.172;2024-01-07T08:55:14;6.20;99.90
15815;DHT22;8008;50.024;8.172;2024-01-07T08:57:42;6.20;99.90
15815;DHT22;8008;50.024;8.172;2024-01-07T09:00:13;6.20;99.90
15815;DHT22;8008;50.024;8.172;2024-01-07T09:02:41;6.20;99.90
15815;DHT22;8008;50.024;8.172;2024-01-07T09:05:12;6.30;99.90
15815;DHT22;8008;50.024;8.172;2024-01-07T09:07:40;6.30;99.90
15815;DHT22;8008;50.024;8.172;2024-01-07T09:10:09;6.30;99.90
15815;DHT22;8008;50.024;8.172;2024-01-07T09:12:40;6.30;99.90
15815;DHT22;8008;50.024;8.172;2024-01-07T09:15:08;6.30;99.90
15815;DHT22;8008;50.024;8.172;2024-01-07T09:17:37;6.30;99.90
15815;DHT22;8008;50.024;8.172;2024-01-07T09:20:07;6.40;99.90
15815;DHT22;8008;50.024;8.172;2024-01-07T09:22:36;6.40;99.90
15815;DHT22;8008;50.024;8.172;2024-01-07T09:25:05;6.40;99.90
15815;DHT22;8008;50.024;8.172;2024-01-07T09:27:34;6.40;99.90
15815;DHT22;8008;50.024;8.172;2024-01-07T09:30:04;6.30;99.90
15815;DHT22;8008;50.024;8.172;2024-01-07T09:32:32;6.30;99.90
15815;DHT22;8008;50.024;8.172;2024-01-07T09:35:04;6.30;99.90
15815;DHT22;8008;50.024;8.172;2024-01-07T09:37:33;6.30;99.90
15815;DHT22;8008;50.024;8.172;2024-01-07T09:40:02;6.20;99.90
15815;DHT22;8008;50.024;8.172;2024-01-07T09:42:32;6.20;99.90
15815;DHT22;8008;50.024;8.172;2024-01-07T09:45:03;6.20;99.90
15815;DHT22;8008;50.024;8.172;2024-01-07T09:47:32;6.20;99.90
15815;DHT22;8008;50.024;8.172;2024-01-07T09:50:00;6.20;99.90
15815;DHT22;8008;50.024;8.172;2024-01-07T09:52:28;6.20;99.90
15815;DHT22;8008;50.024;8.172;2024-01-07T09:54:59;6.10;99.90
15815;DHT22;8008;50.024;8.172;2024-01-07T09:57:27;6.10;99.90
15815;DHT22;8008;50.024;8.172;2024-01-07T09:59:55;6.10;99.90
15815;DHT22;8008;50.024;8.172;2024-01-07T10:02:24;6.00;99.90
15815;DHT22;8008;50.024;8.172;2024-01-07T10:04:52;6.00;99.90
15815;DHT22;8008;50.024;8.172;2024-01-07T10:07:20;6.00;99.90
15815;DHT22;8008;50.024;8.172;2024-01-07T10:09:49;5.90;99.90
15815;DHT22;8008;50.024;8.172;2024-01-07T10:12:16;5.90;99.90
15815;DHT22;8008;50.024;8.172;2024-01-07T10:14:45;5.80;99.90
15815;DHT22;8008;50.024;8.172;2024-01-07T10:17:17;5.80;99.90
15815;DHT22;8008;50.024;8.172;2024-01-07T10:19:46;5.80;99.90
15815;DHT22;8008;50.024;8.172;2024-01-07T10:22:15;5.90;99.90
15815;DHT22;8008;50.024;8.172;2024-01-07T10:24:43;5.90;99.90
15815;DHT22;8008;50.024;8.172;2024-01-07T10:27:11;5.90;99.90
15815;DHT22;8008;50.024;8.172;2024-01-07T10:29:40;5.80;99.90
15815;DHT22;8008;50.024;8.172;2024-01-07T10:32:08;5.90;99.90
15815;DHT22;8008;50.024;8.172;2024-01-07T10:34:36;5.90;99.90
15815;DHT22;8008;50.024;8.172;2024-01-07T10:37:06;5.90;99.90
15815;DHT22;8008;50.024;8.172;2024-01-07T10:39:34;5.90;99.90
15815;DHT22;8008;50.024;8.172;2024-01-07T10:42:04;6.00;99.90
15815;DHT22;8008;50.024;8.172;2024-01-07T10:44:33;6.00;99.90
15815;DHT22;8008;50.024;8.172;2024-01-07T10:47:06;5.90;99.90
15815;DHT22;8008;50.024;8.172;2024-01-07T10:49:35;5.90;99.90
15815;DHT22;8008;50.024;8.172;2024-01-07T10:52:07;5.90;99.90
15815;DHT22;8008;50.024;8.172;2024-01-07T10:54:36;5.90;99.90
15815;DHT22;8008;50.024;8.172;2024-01-07T10:57:09;5.90;99.90
15815;DHT22;8008;50.024;8.172;2024-01-07T10:59:39;5.90;99.90
15815;DHT22;8008;50.024;8.172;2024-01-07T11:02:09;5.80;99.90
15815;DHT22;8008;50.024;8.172;2024-01-07T11:04:49;5.90;99.90
15815;DHT22;8008;50.024;8.172;2024-01-07T11:07:27;5.80;99.90
15815;DHT22;8008;50.024;8.172;2024-01-07T11:10:05;5.80;99.90
15815;DHT22;8008;50.024;8.172;2024-01-07T11:12:36;5.80;99.90
15815;DHT22;8008;50.024;8.172;2024-01-07T11:15:05;5.80;99.90
15815;DHT22;8008;50.024;8.172;2024-01-07T11:17:42;5.80;99.90
15815;DHT22;8008;50.024;8.172;2024-01-07T11:20:17;5.80;99.90
15815;DHT22;8008;50.024;8.172;2024-01-07T11:22:48;5.80;99.90
15815;DHT22;8008;50.024;8.172;2024-01-07T11:25:29;5.70;99.90
15815;DHT22;8008;50.024;8.172;2024-01-07T11:27:58;5.80;99.90
15815;DHT22;8008;50.024;8.172;2024-01-07T11:30:28;5.80;99.90
15815;DHT22;8008;50.024;8.172;2024-01-07T11:32:57;5.70;99.90
15815;DHT22;8008;50.024;8.172;2024-01-07T11:35:53;5.60;99.90
15815;DHT22;8008;50.024;8.172;2024-01-07T11:38:22;5.50;99.90
15815;DHT22;8008;50.024;8.172;2024-01-07T11:40:51;5.40;99.90
15815;DHT22;8008;50.024;8.172;2024-01-07T11:43:19;5.40;99.90
15815;DHT22;8008;50.024;8.172;2024-01-07T11:45:49;5.40;99.90
15815;DHT22;8008;50.024;8.172;2024-01-07T11:48:19;5.40;99.90
15815;DHT22;8008;50.024;8.172;2024-01-07T11:50:48;5.30;99.90
15815;DHT22;8008;50.024;8.172;2024-01-07T11:53:20;5.30;99.90
15815;DHT22;8008;50.024;8.172;2024-01-07T11:55:52;5.30;99.90
15815;DHT22;8008;50.024;8.172;2024-01-07T11:58:20;5.30;99.90
15815;DHT22;8008;50.024;8.172;2024-01-07T12:00:48;5.20;99.90
15815;DHT22;8008;50.024;8.172;2024-01-07T12:03:17;5.20;99.90
15815;DHT22;8008;50.024;8.172;2024-01-07T12:05:45;5.10;99.90
15815;DHT22;8008;50.024;8.172;2024-01-07T12:08:14;5.10;99.90
15815;DHT22;8008;50.024;8.172;2024-01-07T12:10:43;5.20;99.90
15815;DHT22;8008;50.024;8.172;2024-01-07T12:13:12;5.30;99.90
15815;DHT22;8008;50.024;8.172;2024-01-07T12:15:41;5.40;99.90
15815;DHT22;8008;50.024;8.172;2024-01-07T12:18:09;5.50;99.90
15815;DHT22;8008;50.024;8.172;2024-01-07T12:20:38;5.50;99.90
15815;DHT22;8008;50.024;8.172;2024-01-07T12:23:06;5.70;99.90
15815;DHT22;8008;50.024;8.172;2024-01-07T12:25:35;5.70;99.90
15815;DHT22;8008;50.024;8.172;2024-01-07T12:28:06;5.80;99.90
15815;DHT22;8008;50.024;8.172;2024-01-07T12:30:36;5.70;99.90
15815;DHT22;8008;50.024;8.172;2024-01-07T12:33:05;5.70;99.90
15815;DHT22;8008;50.024;8.172;2024-01-07T12:35:34;5.70;99.90
15815;DHT22;8008;50.024;8.172;2024-01-07T12:38:02;5.60;99.90
15815;DHT22;8008;50.024;8.172;2024-01-07T12:40:32;5.60;99.90
15815;DHT22;8008;50.024;8.172;2024-01-07T12:43:01;5.50;99.90
15815;DHT22;8008;50.024;8.172;2024-01-07T12:45:29;5.40;99.90
15815;DHT22;8008;50.024;8.172;2024-01-07T12:47:59;5.40;99.90
15815;DHT22;8008;50.024;8.172;2024-01-07T12:50:29;5.50;99.90
15815;DHT22;8008;50.024;8.172;2024-01-07T12:52:58;5.40;99.90
15815;DHT22;8008;50.024;8.172;2024-01-07T12:55:26;5.40;99.90
15815;DHT22;8008;50.024;8.172;2024-01-07T12:57:56;5.40;99.90
15815;DHT22;8008;50.024;8.172;2024-01-07T13:00:25;5.40;99.90
15815;DHT22;8008;50.024;8.172;2024-01-07T13:02:53;5.40;99.90
15815;DHT22;8008;50.024;8.172;2024-01-07T13:05:28;5.40;99.90
15815;DHT22;8008;50.024;8.172;2024-01-07T13:07:56;5.40;99.90
15815;DHT22;8008;50.024;8.172;2024-01-07T13:10:24;5.30;99.90
15815;DHT22;8008;50.024;8.172;2024-01-07T13:12:52;5.30;99.90
15815;DHT22;8008;50.024;8.172;2024-01-07T13:15:30;5.40;99.90
15815;DHT22;8008;50.024;8.172;2024-01-07T13:17:59;5.30;99.90
15815;DHT22;8008;50.024;8.172;2024-01-07T13:20:28;5.30;99.90
15815;DHT22;8008;50.024;8.172;2024-01-07T13:22:56;5.20;99.90
15815;DHT22;8008;50.024;8.172;2024-01-07T13:25:25;5.20;99.90
15815;DHT22;8008;50.024;8.172;2024-01-07T13:27:53;5.30;99.90
15815;DHT22;8008;50.024;8.172;2024-01-07T13:30:21;5.20;99.90
15815;DHT22;8008;50.024;8.172;2024-01-07T13:32:49;5.30;99.90
15815;DHT22;8008;50.024;8.172;2024-01-07T13:35:24;5.20;99.90
15815;DHT22;8008;50.024;8.172;2024-01-07T13:37:54;5.20;99.90
15815;DHT22;8008;50.024;8.172;2024-01-07T13:40:22;5.20;99.90
15815;DHT22;8008;50.024;8.172;2024-01-07T13:42:50;5.10;99.90
15815;DHT22;8008;50.024;8.172;2024-01-07T13:45:20;5.00;99.90
15815;DHT22;8008;50.024;8.172;2024-01-07T13:47:50;5.00;99.90
15815;DHT22;8008;50.024;8.172;2024-01-07T13:50:18;5.00;99.90
15815;DHT22;8008;50.024;8.172;2024-01-07T13:52:46;4.90;99.90
15815;DHT22;8008;50.024;8.172;2024-01-07T13:55:16;4.80;99.90
15815;DHT22;8008;50.024;8.172;2024-01-07T13:57:44;4.80;99.90
15815;DHT22;8008;50.024;8.172;2024-01-07T14:00:12;4.90;99.90
15815;DHT22;8008;50.024;8.172;2024-01-07T14:02:45;4.90;99.90
15815;DHT22;8008;50.024;8.172;2024-01-07T14:05:15;4.90;99.90
15815;DHT22;8008;50.024;8.172;2024-01-07T14:07:46;4.80;99.90
15815;DHT22;8008;50.024;8.172;2024-01-07T14:10:16;4.80;99.90
15815;DHT22;8008;50.024;8.172;2024-01-07T14:12:46;4.70;99.90
15815;DHT22;8008;50.024;8.172;2024-01-07T14:15:15;4.50;99.90
15815;DHT22;8008;50.024;8.172;2024-01-07T14:17:44;4.50;99.90
15815;DHT22;8008;50.024;8.172;2024-01-07T14:20:13;4.50;99.90
15815;DHT22;8008;50.024;8.172;2024-01-07T14:22:41;4.40;99.90
15815;DHT22;8008;50.024;8.172;2024-01-07T14:25:09;4.30;99.90
15815;DHT22;8008;50.024;8.172;2024-01-07T14:27:38;4.30;99.90
15815;DHT22;8008;50.024;8.172;2024-01-07T14:30:07;4.30;99.90
15815;DHT22;8008;50.024;8.172;2024-01-07T14:32:35;4.30;99.90
15815;DHT22;8008;50.024;8.172;2024-01-07T14:35:04;4.20;99.90
15815;DHT22;8008;50.024;8.172;2024-01-07T14:37:33;4.20;99.90
15815;DHT22;8008;50.024;8.172;2024-01-07T14:40:04;4.20;99.90
15815;DHT22;8008;50.024;8.172;2024-01-07T14:42:33;4.20;99.90
15815;DHT22;8008;50.024;8.172;2024-01-07T14:45:02;4.20;99.90
15815;DHT22;8008;50.024;8.172;2024-01-07T14:47:31;4.20;99.90
15815;DHT22;8008;50.024;8.172;2024-01-07T14:49:59;4.10;99.90
15815;DHT22;8008;50.024;8.172;2024-01-07T14:52:29;4.20;99.90
15815;DHT22;8008;50.024;8.172;2024-01-07T14:54:58;4.10;99.90
15815;DHT22;8008;50.024;8.172;2024-01-07T14:57:27;4.00;99.90
15815;DHT22;8008;50.024;8.172;2024-01-07T14:59:55;4.00;99.90
15815;DHT22;8008;50.024;8.172;2024-01-07T15:02:24;3.90;99.90
15815;DHT22;8008;50.024;8.172;2024-01-07T15:04:52;3.90;99.90
15815;DHT22;8008;50.024;8.172;2024-01-07T15:07:21;3.90;99.90
15815;DHT22;8008;50.024;8.172;2024-01-07T15:09:50;3.80;99.90
15815;DHT22;8008;50.024;8.172;2024-01-07T15:12:18;3.80;99.90
15815;DHT22;8008;50.024;8.172;2024-01-07T15:14:46;3.80;99.90
15815;DHT22;8008;50.024;8.172;2024-01-07T15:17:17;3.90;99.90
15815;DHT22;8008;50.024;8.172;2024-01-07T15:19:47;3.80;99.90
15815;DHT22;8008;50.024;8.172;2024-01-07T15:22:15;3.80;99.90
15815;DHT22;8008;50.024;8.172;2024-01-07T15:24:43;3.70;99.90
15815;DHT22;8008;50.024;8.172;2024-01-07T15:27:12;3.60;99.90
15815;DHT22;8008;50.024;8.172;2024-01-07T15:29:40;3.50;99.90
15815;DHT22;8008;50.024;8.172;2024-01-07T15:32:08;3.50;99.90
15815;DHT22;8008;50.024;8.172;2024-01-07T15:34:36;3.40;99.90
15815;DHT22;8008;50.024;8.172;2024-01-07T15:37:05;3.50;99.90
15815;DHT22;8008;50.024;8.172;2024-01-07T15:39:33;3.40;99.90
15815;DHT22;8008;50.024;8.172;2024-01-07T15:42:01;3.30;99.90
15815;DHT22;8008;50.024;8.172;2024-01-07T15:44:29;3.30;99.90
15815;DHT22;8008;50.024;8.172;2024-01-07T15:46:58;3.20;99.90
15815;DHT22;8008;50.024;8.172;2024-01-07T15:49:26;3.20;99.90
15815;DHT22;8008;50.024;8.172;2024-01-07T15:51:54;3.20;99.90
15815;DHT22;8008;50.024;8.172;2024-01-07T15:54:23;3.20;99.90
15815;DHT22;8008;50.024;8.172;2024-01-07T15:56:51;3.10;99.90
15815;DHT22;8008;50.024;8.172;2024-01-07T15:59:19;3.10;99.90
15815;DHT22;8008;50.024;8.172;2024-01-07T16:01:47;3.00;99.90
15815;DHT22;8008;50.024;8.172;2024-01-07T16:04:15;3.00;99.90
15815;DHT22;8008;50.024;8.172;2024-01-07T16:06:47;3.00;99.60
15815;DHT22;8008;50.024;8.172;2024-01-07T16:09:15;3.00;99.90
15815;DHT22;8008;50.024;8.172;2024-01-07T16:11:47;3.00;99.90
15815;DHT22;8008;50.024;8.172;2024-01-07T16:14:15;2.90;99.90
15815;DHT22;8008;50.024;8.172;2024-01-07T16:16:44;2.80;99.20
15815;DHT22;8008;50.024;8.172;2024-01-07T16:19:12;2.80;99.20
15815;DHT22;8008;50.024;8.172;2024-01-07T16:21:40;2.70;99.00
15815;DHT22;8008;50.024;8.172;2024-01-07T16:24:08;2.80;98.90
15815;DHT22;8008;50.024;8.172;2024-01-07T16:26:36;2.80;98.60
15815;DHT22;8008;50.024;8.172;2024-01-07T16:29:05;2.70;98.00
15815;DHT22;8008;50.024;8.172;2024-01-07T16:31:35;2.60;98.00
15815;DHT22;8008;50.024;8.172;2024-01-07T16:34:04;2.50;97.20
15815;DHT22;8008;50.024;8.172;2024-01-07T16:36:33;2.50;96.80
15815;DHT22;8008;50.024;8.172;2024-01-07T16:39:01;2.50;96.90
15815;DHT22;8008;50.024;8.172;2024-01-07T16:41:30;2.40;96.00
15815;DHT22;8008;50.024;8.172;2024-01-07T16:43:58;2.40;96.10
15815;DHT22;8008;50.024;8.172;2024-01-07T16:46:27;2.30;95.50
15815;DHT22;8008;50.024;8.172;2024-01-07T16:48:58;2.30;95.70
15815;DHT22;8008;50.024;8.172;2024-01-07T16:51:45;2.40;95.70
15815;DHT22;8008;50.024;8.172;2024-01-07T16:54:14;2.30;94.80
15815;DHT22;8008;50.024;8.172;2024-01-07T16:56:42;2.20;94.40
15815;DHT22;8008;50.024;8.172;2024-01-07T16:59:10;2.30;94.50
15815;DHT22;8008;50.024;8.172;2024-01-07T17:01:43;2.20;94.30
15815;DHT22;8008;50.024;8.172;2024-01-07T17:04:11;2.30;94.60
15815;DHT22;8008;50.024;8.172;2024-01-07T17:06:39;2.20;94.50
15815;DHT22;8008;50.024;8.172;2024-01-07T17:09:07;2.30;94.90
15815;DHT22;8008;50.024;8.172;2024-01-07T17:11:36;2.30;95.00
15815;DHT22;8008;50.024;8.172;2024-01-07T17:14:05;2.30;94.50
15815;DHT22;8008;50.024;8.172;2024-01-07T17:16:33;2.20;94.60
15815;DHT22;8008;50.024;8.172;2024-01-07T17:19:02;2.20;94.90
15815;DHT22;8008;50.024;8.172;2024-01-07T17:21:30;2.20;95.20
15815;DHT22;8008;50.024;8.172;2024-01-07T17:23:58;2.30;94.80
15815;DHT22;8008;50.024;8.172;2024-01-07T17:26:26;2.30;94.20
15815;DHT22;8008;50.024;8.172;2024-01-07T17:28:55;2.20;94.60
15815;DHT22;8008;50.024;8.172;2024-01-07T17:31:24;2.30;95.00
15815;DHT22;8008;50.024;8.172;2024-01-07T17:33:51;2.30;93.20
15815;DHT22;8008;50.024;8.172;2024-01-07T17:36:21;2.30;93.60
15815;DHT22;8008;50.024;8.172;2024-01-07T17:38:49;2.20;93.20
15815;DHT22;8008;50.024;8.172;2024-01-07T17:41:17;2.20;93.10
15815;DHT22;8008;50.024;8.172;2024-01-07T17:43:45;2.20;93.10
15815;DHT22;8008;50.024;8.172;2024-01-07T17:46:13;2.20;92.30
15815;DHT22;8008;50.024;8.172;2024-01-07T17:48:42;2.10;92.20
15815;DHT22;8008;50.024;8.172;2024-01-07T17:51:10;2.10;92.00
15815;DHT22;8008;50.024;8.172;2024-01-07T17:53:40;2.10;92.20
15815;DHT22;8008;50.024;8.172;2024-01-07T17:56:17;2.10;92.40
15815;DHT22;8008;50.024;8.172;2024-01-07T17:58:45;2.10;92.00
15815;DHT22;8008;50.024;8.172;2024-01-07T18:01:13;2.20;92.00
15815;DHT22;8008;50.024;8.172;2024-01-07T18:03:41;2.20;92.40
15815;DHT22;8008;50.024;8.172;2024-01-07T18:06:09;2.20;92.50
15815;DHT22;8008;50.024;8.172;2024-01-07T18:08:37;2.30;93.20
15815;DHT22;8008;50.024;8.172;2024-01-07T18:11:19;2.40;93.30
15815;DHT22;8008;50.024;8.172;2024-01-07T18:13:47;2.20;91.90
15815;DHT22;8008;50.024;8.172;2024-01-07T18:16:15;2.20;92.60
15815;DHT22;8008;50.024;8.172;2024-01-07T18:18:43;2.20;92.10
15815;DHT22;8008;50.024;8.172;2024-01-07T18:21:13;2.20;92.20
15815;DHT22;8008;50.024;8.172;2024-01-07T18:23:42;2.20;91.90
15815;DHT22;8008;50.024;8.172;2024-01-07T18:26:10;2.20;91.80
15815;DHT22;8008;50.024;8.172;2024-01-07T18:28:39;2.20;91.40
15815;DHT22;8008;50.024;8.172;2024-01-07T18:31:09;2.10;91.20
15815;DHT22;8008;50.024;8.172;2024-01-07T18:33:38;2.00;91.20
15815;DHT22;8008;50.024;8.172;2024-01-07T18:36:07;2.00;91.10
15815;DHT22;8008;50.024;8.172;2024-01-07T18:38:36;2.00;91.10
15815;DHT22;8008;50.024;8.172;2024-01-07T18:41:04;2.10;91.20
15815;DHT22;8008;50.024;8.172;2024-01-07T18:43:32;2.00;90.10
15815;DHT22;8008;50.024;8.172;2024-01-07T18:46:01;2.00;90.00
15815;DHT22;8008;50.024;8.172;2024-01-07T18:48:29;2.10;90.30
15815;DHT22;8008;50.024;8.172;2024-01-07T18:50:58;2.10;89.80
15815;DHT22;8008;50.024;8.172;2024-01-07T18:53:28;2.10;90.20
15815;DHT22;8008;50.024;8.172;2024-01-07T18:55:56;2.10;90.30
15815;DHT22;8008;50.024;8.172;2024-01-07T18:58:24;2.10;89.60
15815;DHT22;8008;50.024;8.172;2024-01-07T19:00:53;2.00;88.30
15815;DHT22;8008;50.024;8.172;2024-01-07T19:03:22;2.00;88.90
15815;DHT22;8008;50.024;8.172;2024-01-07T19:05:50;2.00;89.60
15815;DHT22;8008;50.024;8.172;2024-01-07T19:08:18;2.10;89.40
15815;DHT22;8008;50.024;8.172;2024-01-07T19:10:46;2.10;90.10
15815;DHT22;8008;50.024;8.172;2024-01-07T19:13:14;2.20;90.10
15815;DHT22;8008;50.024;8.172;2024-01-07T19:15:43;2.20;89.50
15815;DHT22;8008;50.024;8.172;2024-01-07T19:18:12;2.20;90.00
15815;DHT22;8008;50.024;8.172;2024-01-07T19:20:42;2.20;89.50
15815;DHT22;8008;50.024;8.172;2024-01-07T19:23:13;2.20;89.80
15815;DHT22;8008;50.024;8.172;2024-01-07T19:25:42;2.10;89.10
15815;DHT22;8008;50.024;8.172;2024-01-07T19:28:10;2.10;89.80
15815;DHT22;8008;50.024;8.172;2024-01-07T19:30:38;2.20;89.80
15815;DHT22;8008;50.024;8.172;2024-01-07T19:33:06;2.10;87.60
15815;DHT22;8008;50.024;8.172;2024-01-07T19:35:37;2.10;88.10
15815;DHT22;8008;50.024;8.172;2024-01-07T19:38:06;2.00;89.00
15815;DHT22;8008;50.024;8.172;2024-01-07T19:40:35;2.00;89.60
15815;DHT22;8008;50.024;8.172;2024-01-07T19:43:03;2.10;89.60
15815;DHT22;8008;50.024;8.172;2024-01-07T19:45:32;2.10;89.30
15815;DHT22;8008;50.024;8.172;2024-01-07T19:48:00;2.10;90.20
15815;DHT22;8008;50.024;8.172;2024-01-07T19:50:30;2.10;89.40
15815;DHT22;8008;50.024;8.172;2024-01-07T19:52:58;2.10;89.20
15815;DHT22;8008;50.024;8.172;2024-01-07T19:55:28;2.10;89.20
15815;DHT22;8008;50.024;8.172;2024-01-07T19:57:56;2.10;90.20
15815;DHT22;8008;50.024;8.172;2024-01-07T20:00:24;2.20;89.70
15815;DHT22;8008;50.024;8.172;2024-01-07T20:02:52;2.10;88.50
15815;DHT22;8008;50.024;8.172;2024-01-07T20:05:23;2.10;89.60
15815;DHT22;8008;50.024;8.172;2024-01-07T20:07:52;2.10;89.90
15815;DHT22;8008;50.024;8.172;2024-01-07T20:10:20;2.10;88.30
15815;DHT22;8008;50.024;8.172;2024-01-07T20:12:51;2.20;89.50